Portada
METAR-TAF:

METAR-TAF

Aeroports :

Rajkot, Índia

latitud: 22-18N, longitud: 070-47E, altitud: 134 m

Observació

L'informe es va fer fa 1 hora i 13 minuts, a les 12:00 UTC
Vent 6 kt del Oest/Nord-Oest
Temperatura 31°C
Humitat 66%
Pressió 1003 hPa
Visibilitat: 6000 m
Núvols disperses a una alçada de 2000 ft

METAR: VARK 261200Z 29006KT 6000 SCT020 31/24 Q1003 NOSIG

Hora: 18:43 (13:13 UTC)

Pronòstic

L'informe es va fer fa 2 hores i 13 minuts, a les 11:00 UTC
Pronòstic vàlid del 26 a les 12 UTC al 26 a les 21 UTC
Vent 7 kt del Oest
Visibilitat: 6000 m
Núvols disperses a una alçada de 2000 ft

TAF: VARK 261100Z 2612/2621 27007KT 6000 SCT020

Observacions i pronòstics meteorològics de més de 4000 aeroports (METAR i TAF).

Les estacions disponibles són els punts grocs i vermells al mapa.

Posi el ratolí al punt desitjat per veure el nom de l'estació.

Feu clic per veure les observacions i els pronòstics meteorològics.

Per canviar el mapa: feu clic els botons verds amb una creu de color negre per apropar; al botó verd amb un guió per allunyar la imatge; o en les fletxes verdes per a mapes adjacents.


METAR-TAF: